createdAt,value
2022-09-17T00:00:48.174Z,99561.56
2022-09-17T00:03:33.095Z,99550.78
2022-09-17T00:06:06.154Z,99549.34
2022-09-17T00:08:33.591Z,99551.28
2022-09-17T00:11:07.498Z,99546.97
2022-09-17T00:13:33.947Z,99550.59
2022-09-17T00:16:00.273Z,99547.28
2022-09-17T00:18:26.538Z,99548.97
2022-09-17T00:20:52.866Z,99541.84
2022-09-17T00:23:19.242Z,99545.22
2022-09-17T00:25:45.734Z,99541.47
2022-09-17T00:28:13.946Z,99549.88
2022-09-17T00:30:44.694Z,99541.06
2022-09-17T00:33:12.721Z,99550.16
2022-09-17T00:35:39.137Z,99545.38
2022-09-17T00:38:05.271Z,99540.66
2022-09-17T00:40:31.497Z,99540.75
2022-09-17T00:42:57.872Z,99543.34
2022-09-17T00:45:25.647Z,99544.19
2022-09-17T00:48:01.323Z,99534.59
2022-09-17T00:50:30.574Z,99533.81
2022-09-17T00:53:07.663Z,99536.78
2022-09-17T00:55:37.189Z,99546.38
2022-09-17T00:58:07.184Z,99541.97
2022-09-17T01:00:33.451Z,99551.03
2022-09-17T01:03:00.238Z,99551.88
2022-09-17T01:05:35.520Z,99546.38
2022-09-17T01:08:11.684Z,99543.84
2022-09-17T01:11:02.682Z,99536.72
2022-09-17T01:13:54.905Z,99541.66
2022-09-17T01:16:39.847Z,99540.16
2022-09-17T01:19:43.742Z,99542.06
2022-09-17T01:22:57.486Z,99536.41
2022-09-17T01:26:00.719Z,99528.91
2022-09-17T01:28:48.354Z,99525.88
2022-09-17T01:31:25.762Z,99529.69
2022-09-17T01:34:10.734Z,99524.44
2022-09-17T01:36:46.731Z,99526.13
2022-09-17T01:39:15.605Z,99525.09
2022-09-17T01:42:02.421Z,99526.44
2022-09-17T01:44:31.420Z,99531.56
2022-09-17T01:47:06.882Z,99532.22
2022-09-17T01:49:37.157Z,99523.81
2022-09-17T01:52:05.106Z,99531.19
2022-09-17T01:54:42.423Z,99533.69
2022-09-17T01:57:28.620Z,99532.28
2022-09-17T02:00:01.153Z,99532.03
2022-09-17T02:02:44.712Z,99531.38
2022-09-17T02:05:18.271Z,99539.53
2022-09-17T02:07:52.115Z,99531.75
2022-09-17T02:10:24.156Z,99528.72
2022-09-17T02:13:00.696Z,99532.84
2022-09-17T02:15:32.567Z,99524.94
2022-09-17T02:18:28.556Z,99527.88
2022-09-17T02:21:30.516Z,99531.22
2022-09-17T02:24:23.123Z,99534.16
2022-09-17T02:27:22.028Z,99533.50
2022-09-17T02:29:49.145Z,99537.72
2022-09-17T02:32:15.324Z,99533.31
2022-09-17T02:34:41.626Z,99537.19
2022-09-17T02:37:08.253Z,99535.56
2022-09-17T02:39:34.931Z,99528.47
2022-09-17T02:42:19.935Z,99525.69
2022-09-17T02:45:07.401Z,99521.94
2022-09-17T02:47:51.036Z,99517.31
2022-09-17T02:50:20.381Z,99523.16
2022-09-17T02:53:07.869Z,99526.13
2022-09-17T02:55:40.865Z,99528.00
2022-09-17T02:58:16.066Z,99516.94
2022-09-17T03:00:44.617Z,99526.19
2022-09-17T03:03:31.462Z,99518.81
2022-09-17T03:05:59.403Z,99512.38
2022-09-17T03:08:33.634Z,99504.44
2022-09-17T03:11:00.070Z,99517.84
2022-09-17T03:13:26.291Z,99513.03
2022-09-17T03:15:54.867Z,99515.31
2022-09-17T03:18:21.258Z,99500.66
2022-09-17T03:20:47.393Z,99506.69
2022-09-17T03:23:13.543Z,99520.88
2022-09-17T03:25:39.822Z,99511.06
2022-09-17T03:28:06.038Z,99507.19
2022-09-17T03:30:32.933Z,99512.09
2022-09-17T03:32:59.367Z,99524.00
2022-09-17T03:35:25.481Z,99519.97
2022-09-17T03:37:51.629Z,99528.50
2022-09-17T03:40:19.149Z,99535.63
2022-09-17T03:42:45.312Z,99535.22
2022-09-17T03:45:11.681Z,99533.16
2022-09-17T03:47:38.014Z,99533.63
2022-09-17T03:50:05.686Z,99533.16
2022-09-17T03:52:31.875Z,99534.19
2022-09-17T03:54:58.246Z,99533.34
2022-09-17T03:57:24.514Z,99541.06
2022-09-17T03:59:50.695Z,99531.69
2022-09-17T04:02:17.113Z,99542.75
2022-09-17T04:04:43.346Z,99546.41
2022-09-17T04:07:09.478Z,99541.22
2022-09-17T04:09:35.819Z,99549.38
2022-09-17T04:12:02.452Z,99541.41
2022-09-17T04:14:28.714Z,99541.22
2022-09-17T04:16:55.047Z,99545.88
2022-09-17T04:19:21.191Z,99542.91
2022-09-17T04:21:47.339Z,99537.00
2022-09-17T04:24:13.630Z,99548.78
2022-09-17T04:26:39.816Z,99546.00
2022-09-17T04:29:06.000Z,99554.75
2022-09-17T04:31:32.653Z,99555.44
2022-09-17T04:33:58.916Z,99555.06
2022-09-17T04:36:27.088Z,99561.34
2022-09-17T04:38:53.374Z,99564.66
2022-09-17T04:41:19.665Z,99564.59
2022-09-17T04:43:46.100Z,99569.19
2022-09-17T04:46:13.462Z,99573.31
2022-09-17T04:48:39.590Z,99573.84
2022-09-17T04:51:05.702Z,99571.97
2022-09-17T04:53:32.057Z,99573.66
2022-09-17T04:55:58.216Z,99577.47
2022-09-17T04:58:24.542Z,99578.56
2022-09-17T05:00:51.482Z,99587.94
2022-09-17T05:03:17.637Z,99587.31
2022-09-17T05:05:43.870Z,99593.00
2022-09-17T05:08:11.071Z,99599.53
2022-09-17T05:10:37.194Z,99600.38
2022-09-17T05:13:03.322Z,99600.84
2022-09-17T05:15:30.057Z,99601.22
2022-09-17T05:17:56.481Z,99615.47
2022-09-17T05:20:22.795Z,99619.69
2022-09-17T05:22:51.542Z,99618.00
2022-09-17T05:25:23.362Z,99614.44
2022-09-17T05:27:53.038Z,99622.38
2022-09-17T05:30:20.188Z,99620.16
2022-09-17T05:32:47.282Z,99626.09
2022-09-17T05:35:14.746Z,99623.88
2022-09-17T05:37:41.411Z,99631.63
2022-09-17T05:40:08.643Z,99624.81
2022-09-17T05:42:35.618Z,99627.66
2022-09-17T05:45:03.018Z,99632.06
2022-09-17T05:47:31.529Z,99627.19
2022-09-17T05:49:58.007Z,99630.16
2022-09-17T05:52:27.464Z,99631.59
2022-09-17T05:54:54.059Z,99622.41
2022-09-17T05:57:20.821Z,99625.25
2022-09-17T05:59:46.979Z,99629.44
2022-09-17T06:02:13.383Z,99632.88
2022-09-17T06:04:40.825Z,99629.75
2022-09-17T06:07:08.431Z,99638.66
2022-09-17T06:09:40.291Z,99637.97
2022-09-17T06:12:07.539Z,99639.38
2022-09-17T06:14:33.732Z,99636.59
2022-09-17T06:16:59.911Z,99636.28
2022-09-17T06:19:27.705Z,99640.63
2022-09-17T06:21:54.880Z,99643.59
2022-09-17T06:24:21.152Z,99637.63
2022-09-17T06:26:48.068Z,99649.91
2022-09-17T06:29:14.752Z,99644.16
2022-09-17T06:31:43.926Z,99650.19
2022-09-17T06:34:10.890Z,99650.50
2022-09-17T06:36:37.124Z,99653.94
2022-09-17T06:39:03.609Z,99651.22
2022-09-17T06:41:30.034Z,99646.81
2022-09-17T06:43:56.316Z,99655.38
2022-09-17T06:46:22.576Z,99643.84
2022-09-17T06:48:49.039Z,99652.34
2022-09-17T06:51:15.527Z,99645.00
2022-09-17T06:53:41.691Z,99648.91
2022-09-17T06:56:08.843Z,99661.66
2022-09-17T06:58:44.960Z,99649.66
2022-09-17T07:01:12.117Z,99645.88
2022-09-17T07:03:42.066Z,99644.34
2022-09-17T07:06:11.989Z,99646.97
2022-09-17T07:08:40.986Z,99644.66
2022-09-17T07:11:07.598Z,99648.13
2022-09-17T07:13:34.171Z,99643.28
2022-09-17T07:16:02.108Z,99646.34
2022-09-17T07:18:30.336Z,99649.50
2022-09-17T07:20:58.471Z,99649.72
2022-09-17T07:23:29.704Z,99649.72
2022-09-17T07:25:59.480Z,99654.56
2022-09-17T07:28:26.802Z,99650.78
2022-09-17T07:30:53.110Z,99650.81
2022-09-17T07:33:24.952Z,99650.84
2022-09-17T07:35:56.168Z,99652.16
2022-09-17T07:38:23.552Z,99652.41
2022-09-17T07:41:04.551Z,99647.41
2022-09-17T07:43:35.386Z,99651.00
2022-09-17T07:46:05.322Z,99655.00
2022-09-17T07:48:32.253Z,99651.66
2022-09-17T07:50:58.517Z,99659.66
2022-09-17T07:53:26.354Z,99662.81
2022-09-17T07:55:59.897Z,99664.28
2022-09-17T07:58:32.372Z,99666.81
2022-09-17T08:01:01.588Z,99667.84
2022-09-17T08:03:29.819Z,99668.91
2022-09-17T08:06:11.590Z,99671.84
2022-09-17T08:08:39.454Z,99669.31
2022-09-17T08:11:11.065Z,99668.50
2022-09-17T08:13:37.822Z,99675.22
2022-09-17T08:16:06.760Z,99674.78
2022-09-17T08:18:34.275Z,99672.25
2022-09-17T08:21:03.160Z,99672.91
2022-09-17T08:23:30.617Z,99666.38
2022-09-17T08:25:59.616Z,99674.34
2022-09-17T08:28:28.001Z,99675.34
2022-09-17T08:31:00.348Z,99662.41
2022-09-17T08:33:31.133Z,99667.84
2022-09-17T08:35:58.866Z,99671.31
2022-09-17T08:38:26.481Z,99674.34
2022-09-17T08:41:14.299Z,99676.66
2022-09-17T08:43:51.645Z,99666.38
2022-09-17T08:46:17.939Z,99680.19
2022-09-17T08:48:55.621Z,99670.72
2022-09-17T08:51:45.320Z,99673.81
2022-09-17T08:54:32.985Z,99682.28
2022-09-17T08:57:14.637Z,99674.75
2022-09-17T08:59:51.839Z,99669.91
2022-09-17T09:02:27.816Z,99679.78
2022-09-17T09:05:15.999Z,99682.84
2022-09-17T09:07:57.572Z,99682.47
2022-09-17T09:10:31.298Z,99677.38
2022-09-17T09:13:00.440Z,99675.59
2022-09-17T09:16:01.492Z,99692.59
2022-09-17T09:18:35.071Z,99681.41
2022-09-17T09:21:16.564Z,99683.44
2022-09-17T09:23:56.069Z,99690.66
2022-09-17T09:26:33.421Z,99695.44
2022-09-17T09:29:21.387Z,99700.63
2022-09-17T09:32:15.851Z,99697.66
2022-09-17T09:34:44.420Z,99702.22
2022-09-17T09:37:21.330Z,99709.03
2022-09-17T09:39:50.479Z,99714.63
2022-09-17T09:42:32.543Z,99710.59
2022-09-17T09:45:33.607Z,99711.28
2022-09-17T09:48:15.771Z,99712.63
2022-09-17T09:51:07.256Z,99715.28
2022-09-17T09:53:51.855Z,99715.22
2022-09-17T09:56:52.177Z,99710.31
2022-09-17T09:59:19.489Z,99712.41
2022-09-17T10:01:46.015Z,99715.81
2022-09-17T10:04:19.859Z,99727.34
2022-09-17T10:06:49.723Z,99727.53
2022-09-17T10:09:20.420Z,99723.34
2022-09-17T10:12:15.584Z,99733.16
2022-09-17T10:14:44.663Z,99741.19
2022-09-17T10:17:13.795Z,99744.94
2022-09-17T10:19:41.304Z,99745.38
2022-09-17T10:22:44.651Z,99738.75
2022-09-17T10:25:27.845Z,99739.41
2022-09-17T10:27:55.191Z,99734.38
2022-09-17T10:30:23.622Z,99735.72
2022-09-17T10:33:16.318Z,99743.44
2022-09-17T10:35:55.909Z,99745.25
2022-09-17T10:38:31.582Z,99758.81
2022-09-17T10:41:21.219Z,99763.88
2022-09-17T10:43:49.532Z,99751.59
2022-09-17T10:46:27.742Z,99754.28
2022-09-17T10:49:04.738Z,99747.31
2022-09-17T10:51:31.700Z,99745.59
2022-09-17T10:54:05.199Z,99745.94
2022-09-17T10:56:38.055Z,99748.00
2022-09-17T10:59:26.129Z,99747.41
2022-09-17T11:02:09.294Z,99745.78
2022-09-17T11:04:58.868Z,99745.78
2022-09-17T11:07:37.963Z,99742.88
2022-09-17T11:11:01.319Z,99740.75
2022-09-17T11:13:56.953Z,99726.69
2022-09-17T11:16:32.403Z,99735.72
2022-09-17T11:19:29.692Z,99723.75
2022-09-17T11:22:29.986Z,99733.63
2022-09-17T11:25:26.873Z,99727.94
2022-09-17T11:28:20.647Z,99729.41
2022-09-17T11:31:05.356Z,99742.03
2022-09-17T11:33:37.807Z,99738.66
2022-09-17T11:36:20.500Z,99735.91
2022-09-17T11:38:57.311Z,99733.19
2022-09-17T11:41:30.896Z,99727.28
2022-09-17T11:44:15.923Z,99730.00
2022-09-17T11:46:48.363Z,99732.28
2022-09-17T11:49:29.584Z,99732.66
2022-09-17T11:52:01.775Z,99724.22
2022-09-17T11:54:45.148Z,99724.91
2022-09-17T11:57:18.716Z,99711.03
2022-09-17T12:00:06.198Z,99715.13
2022-09-17T12:03:06.268Z,99714.47
2022-09-17T12:05:39.094Z,99711.66
2022-09-17T12:08:22.003Z,99712.56
2022-09-17T12:11:12.667Z,99712.59
2022-09-17T12:13:56.397Z,99715.53
2022-09-17T12:16:28.247Z,99701.28
2022-09-17T12:18:57.501Z,99699.13
2022-09-17T12:21:31.234Z,99689.56
2022-09-17T12:24:12.763Z,99682.81
2022-09-17T12:26:48.055Z,99679.00
2022-09-17T12:29:20.346Z,99677.81
2022-09-17T12:31:58.276Z,99684.47
2022-09-17T12:34:52.800Z,99672.59
2022-09-17T12:37:45.333Z,99659.09
2022-09-17T12:40:17.677Z,99668.50
2022-09-17T12:43:11.002Z,99664.31
2022-09-17T12:46:03.151Z,99666.47
2022-09-17T12:49:04.629Z,99668.03
2022-09-17T12:51:53.989Z,99666.81
2022-09-17T12:54:50.747Z,99670.53
2022-09-17T12:57:29.032Z,99673.50
2022-09-17T13:00:07.989Z,99668.81
2022-09-17T13:02:48.684Z,99667.56
2022-09-17T13:05:36.136Z,99669.94
2022-09-17T13:08:21.438Z,99668.03
2022-09-17T13:11:10.868Z,99664.06
2022-09-17T13:13:56.410Z,99663.28
2022-09-17T13:16:25.792Z,99670.00
2022-09-17T13:19:16.148Z,99668.91
2022-09-17T13:21:53.818Z,99672.53
2022-09-17T13:24:24.482Z,99673.22
2022-09-17T13:26:53.516Z,99668.66
2022-09-17T13:29:44.657Z,99673.84
2022-09-17T13:32:33.224Z,99682.34
2022-09-17T13:35:05.786Z,99679.13
2022-09-17T13:37:34.894Z,99688.69
2022-09-17T13:40:02.420Z,99681.47
2022-09-17T13:42:41.745Z,99680.91
2022-09-17T13:45:13.183Z,99683.38
2022-09-17T13:47:50.935Z,99679.50
2022-09-17T13:50:41.833Z,99673.94
2022-09-17T13:53:20.732Z,99664.69
2022-09-17T13:55:58.664Z,99653.81
2022-09-17T13:58:31.109Z,99658.09
2022-09-17T14:01:02.872Z,99656.94
2022-09-17T14:03:43.634Z,99659.44
2022-09-17T14:06:21.236Z,99648.53
2022-09-17T14:08:50.053Z,99661.19
2022-09-17T14:11:22.243Z,99662.28
2022-09-17T14:14:03.558Z,99654.53
2022-09-17T14:16:34.657Z,99647.75
2022-09-17T14:19:16.683Z,99651.09
2022-09-17T14:22:01.276Z,99647.53
2022-09-17T14:24:46.115Z,99649.75
2022-09-17T14:27:26.185Z,99653.16
2022-09-17T14:30:02.133Z,99643.34
2022-09-17T14:32:38.985Z,99645.03
2022-09-17T14:35:19.948Z,99651.94
2022-09-17T14:37:54.686Z,99651.66
2022-09-17T14:40:23.947Z,99644.13
2022-09-17T14:42:54.782Z,99643.66
2022-09-17T14:45:32.190Z,99644.66
2022-09-17T14:48:19.157Z,99643.66
2022-09-17T14:50:45.850Z,99638.47
2022-09-17T14:53:18.341Z,99643.00
2022-09-17T14:55:49.935Z,99637.53
2022-09-17T14:58:47.981Z,99641.81
2022-09-17T15:01:30.282Z,99648.16
2022-09-17T15:04:12.449Z,99650.69
2022-09-17T15:06:39.345Z,99653.47
2022-09-17T15:09:13.704Z,99659.22
2022-09-17T15:11:42.962Z,99660.31
2022-09-17T15:14:17.540Z,99660.53
2022-09-17T15:16:55.604Z,99664.16
2022-09-17T15:19:24.122Z,99663.19
2022-09-17T15:21:52.535Z,99656.66
2022-09-17T15:24:34.266Z,99654.97
2022-09-17T15:27:22.726Z,99658.56
2022-09-17T15:29:54.108Z,99664.47
2022-09-17T15:32:21.629Z,99663.03
2022-09-17T15:35:14.508Z,99666.44
2022-09-17T15:38:11.979Z,99664.81
2022-09-17T15:40:42.015Z,99672.81
2022-09-17T15:43:28.765Z,99665.06
2022-09-17T15:45:57.395Z,99667.59
2022-09-17T15:48:34.728Z,99676.22
2022-09-17T15:51:04.302Z,99662.56
2022-09-17T15:53:32.290Z,99672.88
2022-09-17T15:56:04.301Z,99678.31
2022-09-17T15:58:37.129Z,99680.41
2022-09-17T16:01:15.857Z,99672.19
2022-09-17T16:03:43.078Z,99678.09
2022-09-17T16:06:21.692Z,99676.59
2022-09-17T16:08:52.102Z,99674.72
2022-09-17T16:11:27.094Z,99679.97
2022-09-17T16:13:55.001Z,99683.34
2022-09-17T16:16:36.193Z,99685.66
2022-09-17T16:19:05.791Z,99689.69
2022-09-17T16:21:32.556Z,99693.66
2022-09-17T16:23:58.723Z,99700.81
2022-09-17T16:26:29.352Z,99703.97
2022-09-17T16:29:01.467Z,99711.75
2022-09-17T16:31:28.269Z,99709.66
2022-09-17T16:33:54.518Z,99718.50
2022-09-17T16:36:21.061Z,99723.97
2022-09-17T16:38:47.253Z,99726.06
2022-09-17T16:41:13.533Z,99733.00
2022-09-17T16:43:40.597Z,99733.19
2022-09-17T16:46:10.024Z,99734.25
2022-09-17T16:48:36.875Z,99727.31
2022-09-17T16:51:09.552Z,99730.47
2022-09-17T16:53:36.487Z,99720.59
2022-09-17T16:56:10.040Z,99721.00
2022-09-17T16:58:36.701Z,99735.94
2022-09-17T17:01:11.087Z,99730.69
2022-09-17T17:03:37.512Z,99737.19
2022-09-17T17:06:04.038Z,99738.44
2022-09-17T17:08:33.471Z,99748.31
2022-09-17T17:11:00.824Z,99746.81
2022-09-17T17:13:27.337Z,99737.75
2022-09-17T17:15:53.982Z,99742.81
2022-09-17T17:18:21.118Z,99739.91
2022-09-17T17:20:48.244Z,99751.22
2022-09-17T17:23:14.772Z,99749.53
2022-09-17T17:25:41.552Z,99749.13
2022-09-17T17:28:08.084Z,99749.13
2022-09-17T17:30:35.232Z,99752.47
2022-09-17T17:33:03.224Z,99753.53
2022-09-17T17:35:29.588Z,99757.94
2022-09-17T17:37:55.757Z,99757.09
2022-09-17T17:40:22.317Z,99763.41
2022-09-17T17:42:52.211Z,99749.97
2022-09-17T17:45:18.403Z,99759.22
2022-09-17T17:47:44.740Z,99758.72
2022-09-17T17:50:10.967Z,99763.13
2022-09-17T17:52:38.405Z,99759.13
2022-09-17T17:55:06.396Z,99751.38
2022-09-17T17:57:32.591Z,99758.28
2022-09-17T17:59:58.873Z,99755.34
2022-09-17T18:02:25.824Z,99753.88
2022-09-17T18:04:52.200Z,99764.31
2022-09-17T18:07:18.720Z,99766.41
2022-09-17T18:09:46.404Z,99764.94
2022-09-17T18:12:12.681Z,99770.81
2022-09-17T18:14:38.940Z,99762.84
2022-09-17T18:17:05.284Z,99767.88
2022-09-17T18:19:31.555Z,99767.66
2022-09-17T18:21:57.861Z,99772.03
2022-09-17T18:24:24.329Z,99761.53
2022-09-17T18:26:50.776Z,99761.72
2022-09-17T18:29:17.073Z,99770.09
2022-09-17T18:31:44.430Z,99768.66
2022-09-17T18:34:13.275Z,99780.41
2022-09-17T18:36:41.087Z,99773.25
2022-09-17T18:41:58.820Z,99760.19
2022-09-17T18:44:25.171Z,99769.44
2022-09-17T18:46:51.594Z,99765.81
2022-09-17T18:49:17.868Z,99762.44
2022-09-17T18:51:45.774Z,99775.59
2022-09-17T18:54:12.289Z,99766.75
2022-09-17T18:56:39.497Z,99775.13
2022-09-17T18:59:08.253Z,99770.66
2022-09-17T19:01:35.423Z,99768.56
2022-09-17T19:04:02.674Z,99773.97
2022-09-17T19:06:31.211Z,99774.94
2022-09-17T19:09:01.418Z,99769.00
2022-09-17T19:11:28.433Z,99770.94
2022-09-17T19:13:55.172Z,99771.28
2022-09-17T19:16:22.105Z,99772.91
2022-09-17T19:18:48.494Z,99777.25
2022-09-17T19:21:17.232Z,99771.28
2022-09-17T19:23:47.999Z,99774.59
2022-09-17T19:26:18.105Z,99777.19
2022-09-17T19:28:45.188Z,99774.28
2022-09-17T19:31:15.155Z,99779.25
2022-09-17T19:33:42.222Z,99763.59
2022-09-17T19:36:12.602Z,99765.91
2022-09-17T19:38:38.979Z,99753.72
2022-09-17T19:41:11.459Z,99751.84
2022-09-17T19:43:45.479Z,99744.06
2022-09-17T19:46:14.373Z,99736.50
2022-09-17T19:48:45.592Z,99744.28
2022-09-17T19:51:13.417Z,99751.53
2022-09-17T19:53:39.835Z,99759.06
2022-09-17T19:56:09.545Z,99761.13
2022-09-17T19:58:35.763Z,99761.44
2022-09-17T20:01:01.899Z,99764.81
2022-09-17T20:03:28.836Z,99763.72
2022-09-17T20:06:03.454Z,99754.91
2022-09-17T20:08:30.502Z,99760.72
2022-09-17T20:11:04.132Z,99756.31
2022-09-17T20:13:30.883Z,99770.28
2022-09-17T20:16:12.544Z,99776.09
2022-09-17T20:18:39.539Z,99778.84
2022-09-17T20:21:27.250Z,99783.44
2022-09-17T20:23:54.751Z,99788.69
2022-09-17T20:26:21.608Z,99792.63
2022-09-17T20:28:49.575Z,99796.19
2022-09-17T20:31:22.470Z,99793.19
2022-09-17T20:33:53.575Z,99803.22
2022-09-17T20:36:25.068Z,99809.00
2022-09-17T20:41:39.801Z,99812.47
2022-09-17T20:44:06.579Z,99807.41
2022-09-17T20:46:33.067Z,99817.81
2022-09-17T20:48:59.622Z,99812.56
2022-09-17T20:51:27.956Z,99808.09
2022-09-17T20:53:56.406Z,99815.75
2022-09-17T20:56:25.823Z,99821.00
2022-09-17T20:58:56.490Z,99816.31
2022-09-17T21:01:32.080Z,99821.94
2022-09-17T21:04:00.064Z,99826.06
2022-09-17T21:06:28.627Z,99819.31
2022-09-17T21:08:55.532Z,99818.66
2022-09-17T21:11:23.402Z,99819.22
2022-09-17T21:13:50.891Z,99816.69
2022-09-17T21:16:18.076Z,99813.03
2022-09-17T21:18:44.470Z,99816.94
2022-09-17T21:21:12.929Z,99816.00
2022-09-17T21:23:39.997Z,99816.41
2022-09-17T21:26:14.860Z,99812.38
2022-09-17T21:28:42.956Z,99807.50
2022-09-17T21:31:14.365Z,99809.72
2022-09-17T21:33:41.794Z,99814.78
2022-09-17T21:36:11.599Z,99815.91
2022-09-17T21:38:38.107Z,99812.81
2022-09-17T21:41:07.897Z,99807.09
2022-09-17T21:43:35.879Z,99816.63
2022-09-17T21:46:05.992Z,99814.66
2022-09-17T21:48:34.782Z,99809.50
2022-09-17T21:51:06.225Z,99806.91
2022-09-17T21:53:32.696Z,99819.34
2022-09-17T21:56:07.167Z,99815.31
2022-09-17T21:58:33.639Z,99813.97
2022-09-17T22:01:08.317Z,99814.66
2022-09-17T22:03:35.141Z,99815.75
2022-09-17T22:06:22.501Z,99826.47
2022-09-17T22:08:50.849Z,99823.66
2022-09-17T22:11:24.993Z,99823.28
2022-09-17T22:13:53.927Z,99822.00
2022-09-17T22:16:22.253Z,99814.91
2022-09-17T22:18:50.149Z,99817.44
2022-09-17T22:21:23.138Z,99813.59
2022-09-17T22:23:51.495Z,99812.13
2022-09-17T22:26:20.608Z,99808.63
2022-09-17T22:28:47.486Z,99814.06
2022-09-17T22:31:13.781Z,99808.28
2022-09-17T22:33:42.277Z,99798.97
2022-09-17T22:36:11.100Z,99796.81
2022-09-17T22:38:37.931Z,99801.88
2022-09-17T22:41:06.685Z,99793.38
2022-09-17T22:43:33.379Z,99791.19
2022-09-17T22:46:09.189Z,99787.00
2022-09-17T22:48:35.560Z,99784.53
2022-09-17T22:51:01.698Z,99778.63
2022-09-17T22:53:27.972Z,99776.97
2022-09-17T22:55:56.121Z,99779.69
2022-09-17T22:58:23.697Z,99779.38
2022-09-17T23:00:51.955Z,99782.09
2022-09-17T23:03:18.409Z,99786.69
2022-09-17T23:05:46.228Z,99784.81
2022-09-17T23:08:13.562Z,99774.34
2022-09-17T23:10:41.494Z,99775.72
2022-09-17T23:13:08.839Z,99766.41
2022-09-17T23:15:38.608Z,99777.78
2022-09-17T23:18:06.738Z,99776.25
2022-09-17T23:20:33.078Z,99776.25
2022-09-17T23:22:59.671Z,99775.75
2022-09-17T23:25:26.818Z,99773.75
2022-09-17T23:27:56.702Z,99774.41
2022-09-17T23:30:24.814Z,99774.91
2022-09-17T23:32:55.460Z,99772.38
2022-09-17T23:35:23.000Z,99777.16
2022-09-17T23:37:50.143Z,99775.63
2022-09-17T23:40:17.652Z,99774.47
2022-09-17T23:42:44.096Z,99765.34
2022-09-17T23:45:10.273Z,99763.16
2022-09-17T23:47:37.019Z,99771.47
2022-09-17T23:50:03.417Z,99767.09
2022-09-17T23:52:29.606Z,99758.78
2022-09-17T23:54:58.457Z,99764.72
2022-09-17T23:57:24.982Z,99764.56
2022-09-17T23:59:51.315Z,99764.22
